KBTM/BTM METAR and TAF weather

Enter ICAO airport designator
Station Type Date Time Source
KBTM METAR 2022/11/27 07:53 UTC NOAA

KBTM 270753Z AUTO 32005KT 10SM CLR M12/M13 A2998 RMK AO2 SLP198 I1000 T11221133


Station Type Date Time Source
KBTM Decoded METAR 2022/11/27 07:53 UTC NOAA

BERT MOONEY AIRPORT, MT, United States (KBTM) 45-58N 112-30W 1688M
Nov 27, 2022 - 02:53 AM EST / 2022.11.27 0753 UTC
Wind: from the NW (320 degrees) at 6 MPH (5 KT):0
Visibility: 10 mile(s):0
Sky conditions: clear
Temperature: 10.0 F (-12.2 C)
Windchill: 0 F (-18 C):1
Dew Point: 8.1 F (-13.3 C)
Relative Humidity: 91%
Pressure (altimeter): 29.98 in. Hg (1015 hPa)
ob: KBTM 270753Z AUTO 32005KT 10SM CLR M12/M13 A2998 RMK AO2 SLP198 I1000 T11221133
cycle: 8

Station Type Date Time Source
KBTM TAF 2022/11/27 06:22 UTC NOAA

TAF KBTM 270520Z 2706/2806 VRB04KT P6SM SCT150
FM271900 23012G20KT P6SM BKN080
FM272200 28014G24KT 2SM -SN BR OVC025
FM280200 30008KT 5SM -SN BR BKN030

Example: see airport list